Time;durP1;ratioP1;P1;durP2;ratioP2;P2;SDS_P1;SDS_P2;PMS_P1;PMS_P2;Temp;Humidity;BMP_temperature;BMP_pressure;BME280_temperature;BME280_humidity;BME280_pressure;Samples;Min_cycle;Max_cycle;Signal;HPM_P1;HPM_P2
2021/12/13 00:02:23;;;;;;;29.37;11.55;;;;;;;1.89;75.66;101839.19;1990347;70;21640;-58
2021/12/13 00:05:04;;;;;;;29.00;12.13;;;;;;;1.96;75.73;101847.09;1993733;70;21039;-57
2021/12/13 00:07:35;;;;;;;25.12;11.00;;;;;;;2.00;75.62;101839.78;1997857;70;21469;-58
2021/12/13 00:10:12;;;;;;;33.02;10.25;;;;;;;2.05;75.40;101838.13;1998139;70;21134;-57
2021/12/13 00:12:44;;;;;;;22.35;9.58;;;;;;;2.06;75.35;101838.56;1992957;70;22134;-57
2021/12/13 00:15:18;;;;;;;24.35;8.65;;;;;;;2.05;75.43;101839.43;1999272;70;21038;-58
2021/12/13 00:17:50;;;;;;;23.70;9.50;;;;;;;2.02;75.57;101832.88;1996923;70;21030;-59
2021/12/13 00:20:28;;;;;;;21.50;8.20;;;;;;;2.04;75.50;101836.38;1997741;70;21058;-59
2021/12/13 00:22:53;;;;;;;41.42;11.88;;;;;;;2.07;75.34;101832.52;1995014;70;21262;-59
2021/12/13 00:25:25;;;;;;;32.50;10.63;;;;;;;2.06;75.24;101822.97;1989912;70;21687;-59
2021/12/13 00:28:13;;;;;;;36.83;11.48;;;;;;;2.07;75.21;101819.53;1983192;70;21473;-60
2021/12/13 00:31:09;;;;;;;27.60;8.93;;;;;;;2.08;75.17;101822.56;1998814;70;21172;-61
2021/12/13 00:33:48;;;;;;;26.10;7.80;;;;;;;2.08;75.24;101823.86;1980898;70;21422;-62
2021/12/13 00:36:31;;;;;;;64.55;11.12;;;;;;;2.00;75.24;101826.36;1969005;71;21039;-61
2021/12/13 00:39:08;;;;;;;60.83;10.55;;;;;;;1.99;75.34;101818.54;2010223;71;21530;-58
2021/12/13 00:41:38;;;;;;;69.42;10.60;;;;;;;1.98;75.41;101819.41;1987843;71;21031;-59
2021/12/13 00:44:13;;;;;;;51.23;7.08;;;;;;;1.96;75.67;101815.92;1995044;72;20980;-60
2021/12/13 00:46:44;;;;;;;44.18;9.35;;;;;;;1.96;75.81;101818.52;1990908;71;21508;-58
2021/12/13 00:49:17;;;;;;;44.83;7.47;;;;;;;1.82;76.33;101816.58;1970171;72;21007;-59
2021/12/13 00:51:48;;;;;;;30.62;6.65;;;;;;;1.84;76.21;101814.88;1994367;71;21006;-58
2021/12/13 00:57:19;;;;;;;55.15;9.18;;;;;;;1.83;75.99;101796.70;1863760;77;21146;-61
2021/12/13 00:59:57;;;;;;;20.55;6.75;;;;;;;1.82;75.96;101806.19;1851915;77;21506;-60
2021/12/13 01:02:29;;;;;;;44.05;8.13;;;;;;;1.76;76.03;101794.42;1847679;77;21566;-59
2021/12/13 01:05:03;;;;;;;20.27;6.60;;;;;;;1.73;76.12;101798.27;1858379;77;21512;-61
2021/12/13 01:07:55;;;;;;;66.67;8.50;;;;;;;1.73;76.09;101794.38;1858418;77;21580;-61
2021/12/13 01:10:49;;;;;;;51.48;7.80;;;;;;;1.73;76.03;101794.38;1857440;77;21066;-61
2021/12/13 01:13:21;;;;;;;62.53;9.03;;;;;;;1.72;76.00;101784.86;1854306;76;21047;-59
2021/12/13 01:15:57;;;;;;;19.57;5.85;;;;;;;1.74;75.92;101790.94;1864505;77;21616;-62
2021/12/13 01:18:31;;;;;;;34.38;7.00;;;;;;;1.72;76.09;101785.72;1867216;76;21049;-58
2021/12/13 01:21:17;;;;;;;40.30;7.72;;;;;;;1.71;76.17;101789.59;1858997;77;21189;-59
2021/12/13 01:23:49;;;;;;;59.42;7.67;;;;;;;1.71;76.06;101783.09;1857588;77;21150;-59
2021/12/13 01:26:36;;;;;;;27.13;7.15;;;;;;;1.75;75.95;101773.19;1864581;77;21065;-61
2021/12/13 01:29:01;;;;;;;31.62;7.50;;;;;;;1.78;75.85;101769.35;1851753;77;21067;-61
2021/12/13 01:31:39;;;;;;;75.25;9.68;;;;;;;1.81;75.75;101773.70;1856810;77;21134;-59
2021/12/13 01:34:10;;;;;;;29.05;6.47;;;;;;;1.79;75.81;101772.41;1856697;77;21079;-60
2021/12/13 01:36:46;;;;;;;28.87;6.30;;;;;;;1.73;76.06;101768.41;1856938;77;21118;-59
2021/12/13 01:39:14;;;;;;;77.72;8.63;;;;;;;1.70;76.18;101765.36;1860853;77;21456;-59
2021/12/13 01:41:46;;;;;;;20.85;6.22;;;;;;;1.61;76.52;101762.63;1867531;77;21069;-60
2021/12/13 01:44:17;;;;;;;43.73;7.40;;;;;;;1.64;76.70;101768.28;1867815;77;21191;-59
2021/12/13 01:46:49;;;;;;;35.40;7.15;;;;;;;1.64;76.93;101760.48;1867845;77;21467;-59
2021/12/13 01:49:19;;;;;;;61.90;8.23;;;;;;;1.66;76.79;101761.38;1845389;77;21111;-60
2021/12/13 01:51:49;;;;;;;56.98;7.40;;;;;;;1.70;76.61;101760.59;1832988;78;21118;-61
2021/12/13 01:54:21;;;;;;;47.90;6.40;;;;;;;1.69;76.71;101766.63;1855515;77;21100;-60
2021/12/13 01:57:09;;;;;;;49.13;6.65;;;;;;;1.71;76.68;101753.23;1867704;76;21548;-60
2021/12/13 02:02:29;;;;;;;36.55;6.65;;;;;;;1.59;76.86;101751.36;1867449;77;21147;-60
2021/12/13 02:05:16;;;;;;;17.42;5.12;;;;;;;1.62;76.80;101754.41;1836937;78;21182;-58
2021/12/13 02:07:54;;;;;;;13.00;4.20;;;;;;;1.64;76.84;101754.00;1837006;78;21138;-59
2021/12/13 02:10:37;;;;;;;32.93;4.45;;;;;;;1.66;76.73;101753.19;1836356;78;21017;-58
2021/12/13 02:13:10;;;;;;;20.68;4.67;;;;;;;1.68;76.55;101746.29;1841167;77;21084;-61
2021/12/13 02:18:31;;;;;;;23.40;5.22;;;;;;;1.56;76.57;101753.03;1867737;77;21121;-58
2021/12/13 02:21:05;;;;;;;20.37;4.62;;;;;;;1.56;76.43;101756.49;1867612;77;21460;-59
2021/12/13 02:23:35;;;;;;;9.78;4.35;;;;;;;1.57;76.40;101758.25;1866185;77;21123;-59
2021/12/13 02:26:05;;;;;;;25.57;5.87;;;;;;;1.56;76.40;101759.52;1836630;78;21592;-60
2021/12/13 02:28:37;;;;;;;9.95;3.87;;;;;;;1.49;76.40;101749.47;1836683;78;21121;-60
2021/12/13 02:31:11;;;;;;;12.82;4.85;;;;;;;1.45;76.44;101749.84;1855438;77;21521;-60
2021/12/13 02:33:43;;;;;;;30.72;5.92;;;;;;;1.45;76.45;101752.88;1867889;77;21499;-58
2021/12/13 02:36:15;;;;;;;32.70;5.47;;;;;;;1.44;76.42;101758.50;1867875;77;21534;-60
2021/12/13 02:38:47;;;;;;;43.52;7.22;;;;;;;1.37;76.74;101757.09;1867599;76;21603;-59
2021/12/13 02:41:19;;;;;;;33.88;5.03;;;;;;;1.37;76.92;101755.36;1866877;76;21005;-59
2021/12/13 02:43:50;;;;;;;68.28;6.33;;;;;;;1.40;76.92;101754.52;1867564;77;21058;-60
2021/12/13 02:46:19;;;;;;;57.48;6.47;;;;;;;1.34;76.94;101754.00;1867329;77;21070;-59
2021/12/13 02:48:51;;;;;;;89.40;9.08;;;;;;;1.30;76.97;101755.67;1867612;77;21527;-58
2021/12/13 02:51:28;;;;;;;68.92;8.13;;;;;;;1.31;76.97;101757.84;1865664;76;21453;-59
2021/12/13 02:54:16;;;;;;;128.97;10.78;;;;;;;1.30;77.09;101754.81;1866704;77;21034;-58
2021/12/13 02:56:56;;;;;;;20.10;5.22;;;;;;;1.37;77.06;101757.95;1861311;77;21102;-59
2021/12/13 02:59:28;;;;;;;63.42;7.97;;;;;;;1.41;77.12;101758.44;1850206;77;21117;-59
2021/12/13 03:02:05;;;;;;;38.60;6.42;;;;;;;1.43;77.02;101760.62;1847008;77;21135;-60
2021/12/13 03:04:35;;;;;;;42.50;7.53;;;;;;;1.44;76.87;101755.91;1815360;79;21503;-61
2021/12/13 03:07:09;;;;;;;71.42;8.33;;;;;;;1.45;76.79;101755.03;1819790;79;21461;-60
2021/12/13 03:09:41;;;;;;;62.60;8.48;;;;;;;1.39;76.97;101756.69;1819881;79;21172;-60
2021/12/13 03:12:12;;;;;;;59.48;9.45;;;;;;;1.39;77.01;101749.77;1820331;77;21132;-60
2021/12/13 03:14:46;;;;;;;118.62;9.68;;;;;;;1.37;77.06;101750.17;1820104;79;21092;-59
2021/12/13 03:17:18;;;;;;;57.48;8.00;;;;;;;1.34;77.21;101756.59;1820093;79;21089;-59
2021/12/13 03:20:22;;;;;;;48.38;7.55;;;;;;;1.37;77.20;101755.80;1817393;79;21127;-61
2021/12/13 03:22:56;;;;;;;29.00;7.50;;;;;;;1.40;77.06;101753.22;1821107;77;21042;-61
2021/12/13 03:25:48;;;;;;;29.72;7.10;;;;;;;1.44;76.98;101749.41;1848916;77;21136;-59
2021/12/13 03:28:53;;;;;;;89.67;10.08;;;;;;;1.48;76.91;101752.92;1850170;77;21164;-60
2021/12/13 03:31:26;;;;;;;59.20;8.55;;;;;;;1.50;76.75;101762.47;1850165;77;21214;-59
2021/12/13 03:34:07;;;;;;;67.72;8.48;;;;;;;1.49;76.75;101752.92;1842069;77;21441;-59
2021/12/13 03:36:47;;;;;;;76.75;8.93;;;;;;;1.44;76.93;101749.41;1819871;77;21127;-59
2021/12/13 03:39:31;;;;;;;104.17;9.83;;;;;;;1.45;76.87;101752.88;1818529;78;21054;-60
2021/12/13 03:42:03;;;;;;;86.08;8.88;;;;;;;1.46;76.80;101751.60;1818431;78;21512;-63
2021/12/13 03:44:34;;;;;;;84.03;6.67;;;;;;;1.42;76.93;101757.60;1818348;79;21195;-58
2021/12/13 03:47:08;;;;;;;42.95;6.58;;;;;;;1.34;77.19;101751.41;1817923;79;21054;-60
2021/12/13 03:49:42;;;;;;;66.42;7.55;;;;;;;1.30;77.25;101750.92;1827776;77;21057;-60
2021/12/13 03:52:13;;;;;;;148.10;10.78;;;;;;;1.30;77.27;101749.19;1839099;78;21026;-57
2021/12/13 03:54:43;;;;;;;106.58;8.93;;;;;;;1.28;77.29;101753.92;1839582;78;21554;-57
2021/12/13 03:57:15;;;;;;;106.20;9.88;;;;;;;1.24;77.29;101747.81;1846433;77;21065;-58
2021/12/13 03:59:46;;;;;;;67.27;7.20;;;;;;;1.24;77.34;101743.91;1850587;77;21069;-57
2021/12/13 04:02:24;;;;;;;90.57;7.85;;;;;;;1.29;77.47;101745.27;1850609;77;21132;-58
2021/12/13 04:05:02;;;;;;;97.60;8.73;;;;;;;1.30;77.35;101740.55;1849513;77;21045;-57
2021/12/13 04:07:33;;;;;;;116.08;9.23;;;;;;;1.34;77.20;101734.54;1849402;77;21074;-58
2021/12/13 04:10:11;;;;;;;59.77;7.67;;;;;;;1.36;77.19;101736.73;1849454;77;21034;-57
2021/12/13 04:12:47;;;;;;;53.68;8.05;;;;;;;1.37;77.05;101735.89;1849586;77;21085;-57
2021/12/13 04:15:15;;;;;;;75.72;10.10;;;;;;;1.40;77.06;101742.41;1849699;77;21620;-57
2021/12/13 04:18:01;;;;;;;51.23;8.60;;;;;;;1.39;77.11;101737.22;1845281;77;21441;-56
2021/12/13 04:20:39;;;;;;;61.73;8.08;;;;;;;1.38;77.20;101738.05;1850295;77;21070;-57
2021/12/13 04:23:11;;;;;;;26.77;5.10;;;;;;;1.24;77.68;101737.86;1850290;77;21030;-57
2021/12/13 04:25:42;;;;;;;18.80;5.12;;;;;;;1.22;77.60;101738.23;1850289;77;21030;-58
2021/12/13 04:28:17;;;;;;;36.83;5.83;;;;;;;1.15;77.67;101738.16;1850264;77;21195;-58
2021/12/13 04:30:48;;;;;;;83.85;7.45;;;;;;;1.18;77.54;101739.94;1850356;77;21132;-57
2021/12/13 04:33:29;;;;;;;33.00;5.67;;;;;;;1.15;77.50;101726.48;1850724;77;21050;-58
2021/12/13 04:36:03;;;;;;;36.35;4.70;;;;;;;1.12;77.52;101725.13;1850513;77;21433;-57
2021/12/13 04:38:54;;;;;;;37.67;4.90;;;;;;;1.05;77.57;101725.91;1850413;77;21183;-59
2021/12/13 04:41:29;;;;;;;20.20;4.95;;;;;;;1.01;77.58;101725.37;1847818;77;21074;-58
2021/12/13 04:44:00;;;;;;;25.12;7.35;;;;;;;0.96;77.55;101725.75;1850493;77;21053;-57
2021/12/13 04:46:31;;;;;;;24.37;4.03;;;;;;;0.94;77.44;101719.64;1829152;77;21066;-58
2021/12/13 04:49:03;;;;;;;23.67;6.17;;;;;;;0.93;77.34;101717.48;1818552;79;21100;-56
2021/12/13 04:51:34;;;;;;;28.38;6.87;;;;;;;0.89;77.30;101714.83;1818380;78;21673;-56
2021/12/13 04:54:04;;;;;;;23.42;6.42;;;;;;;0.88;77.29;101719.55;1791524;78;21057;-58
2021/12/13 04:56:34;;;;;;;37.58;6.08;;;;;;;0.87;77.24;101709.61;1818455;79;21050;-57
2021/12/13 04:59:05;;;;;;;49.85;6.17;;;;;;;0.90;77.21;101721.74;1856507;77;21052;-60
2021/12/13 05:01:35;;;;;;;92.08;8.55;;;;;;;0.91;77.15;101717.02;1860314;77;21040;-56
2021/12/13 05:04:07;;;;;;;15.78;4.45;;;;;;;0.94;77.08;101715.35;1860421;77;21142;-56
2021/12/13 05:06:39;;;;;;;23.07;4.92;;;;;;;0.97;76.98;101714.52;1860361;77;21060;-56
2021/12/13 05:09:10;;;;;;;37.38;6.83;;;;;;;0.94;76.91;101713.16;1859986;77;21040;-58
2021/12/13 05:11:48;;;;;;;19.52;5.87;;;;;;;0.93;76.90;101716.19;1860468;77;21056;-60
2021/12/13 05:14:19;;;;;;;11.03;4.45;;;;;;;0.91;76.82;101717.88;1859795;77;21076;-61
2021/12/13 05:16:54;;;;;;;30.62;5.95;;;;;;;0.90;76.76;101719.16;1859864;77;21048;-58
2021/12/13 05:19:29;;;;;;;25.20;6.83;;;;;;;0.89;76.72;101710.94;1860651;77;21060;-59
2021/12/13 05:21:59;;;;;;;29.72;6.12;;;;;;;0.89;76.68;101708.34;1859674;77;21466;-57
2021/12/13 05:24:31;;;;;;;25.82;6.37;;;;;;;0.89;76.64;101714.40;1860514;77;21048;-58
2021/12/13 05:27:11;;;;;;;42.33;5.92;;;;;;;0.89;76.59;101714.83;1860291;77;21188;-58
2021/12/13 05:29:43;;;;;;;37.40;6.53;;;;;;;0.90;76.56;101708.78;1860321;77;21044;-59
2021/12/13 05:32:23;;;;;;;23.07;6.80;;;;;;;0.89;76.48;101709.20;1859967;77;21076;-59
2021/12/13 05:34:55;;;;;;;82.10;7.05;;;;;;;0.94;76.47;101712.76;1860106;77;21201;-57
2021/12/13 05:37:26;;;;;;;87.20;8.75;;;;;;;0.97;76.57;101710.63;1860297;77;21135;-56
2021/12/13 05:40:03;;;;;;;19.48;4.28;;;;;;;0.95;76.81;101704.55;1860468;77;21118;-56
2021/12/13 05:42:47;;;;;;;84.30;7.53;;;;;;;0.99;76.87;101710.66;1860201;77;21127;-61
2021/12/13 05:45:19;;;;;;;34.00;5.50;;;;;;;1.02;76.79;101714.17;1860531;77;21118;-56
2021/12/13 05:47:59;;;;;;;39.63;6.70;;;;;;;1.07;76.79;101708.64;1859965;77;21070;-60
2021/12/13 05:50:43;;;;;;;18.25;5.05;;;;;;;1.06;76.77;101712.50;1860206;76;21067;-60
2021/12/13 05:53:17;;;;;;;27.45;4.83;;;;;;;1.07;76.68;101710.34;1860509;77;21472;-59
2021/12/13 05:55:49;;;;;;;25.70;6.15;;;;;;;1.14;76.44;101709.19;1860219;77;21151;-59
2021/12/13 05:58:36;;;;;;;31.48;7.87;;;;;;;1.20;76.27;101702.32;1854016;77;21080;-66
2021/12/13 06:01:20;;;;;;;52.75;10.90;;;;;;;1.27;76.15;101705.45;1837809;77;21569;-60
2021/12/13 06:03:51;;;;;;;58.52;9.25;;;;;;;1.31;76.12;101713.33;1830713;78;21563;-61
2021/12/13 06:06:23;;;;;;;37.05;7.87;;;;;;;1.28;76.53;101703.33;1843164;78;21150;-62
2021/12/13 06:08:55;;;;;;;12.60;5.78;;;;;;;1.35;76.54;101710.35;1845911;77;21723;-61
2021/12/13 06:11:32;;;;;;;36.93;9.35;;;;;;;1.41;76.44;101710.42;1845759;78;21807;-60
2021/12/13 06:14:00;;;;;;;23.42;8.13;;;;;;;1.49;76.26;101704.91;1843635;78;21057;-64
2021/12/13 06:16:34;;;;;;;33.80;8.85;;;;;;;1.56;75.92;101708.91;1844192;78;21487;-62
2021/12/13 06:19:11;;;;;;;31.30;8.75;;;;;;;1.59;75.72;101714.15;1831366;78;21497;-64
2021/12/13 06:21:43;;;;;;;39.70;8.10;;;;;;;1.61;75.65;101712.44;1831354;78;21487;-63
2021/12/13 06:24:13;;;;;;;86.10;10.53;;;;;;;1.71;75.58;101706.06;1831344;77;21101;-63
2021/12/13 06:26:42;;;;;;;32.45;8.65;;;;;;;1.80;75.44;101707.05;1831508;77;21080;-63
2021/12/13 06:29:11;;;;;;;22.93;9.00;;;;;;;1.83;75.65;101703.20;1831389;78;21053;-62
2021/12/13 06:31:43;;;;;;;40.25;9.45;;;;;;;1.84;75.94;101706.23;1831382;78;21049;-63
2021/12/13 06:34:14;;;;;;;57.00;10.18;;;;;;;1.90;76.00;101708.48;1831617;78;21444;-63
2021/12/13 06:36:46;;;;;;;24.45;7.90;;;;;;;1.99;75.72;101709.00;1831374;78;21526;-62
2021/12/13 06:39:18;;;;;;;21.25;8.53;;;;;;;2.06;75.56;101711.26;1831412;78;21131;-64
2021/12/13 06:41:59;;;;;;;54.67;11.38;;;;;;;2.13;75.30;101702.69;1831391;78;21131;-62
2021/12/13 06:44:30;;;;;;;31.00;10.68;;;;;;;2.17;75.09;101705.75;1831391;77;21029;-63
2021/12/13 06:47:08;;;;;;;33.00;11.55;;;;;;;2.17;74.98;101708.35;1831525;78;21021;-63
2021/12/13 06:49:39;;;;;;;37.83;13.10;;;;;;;2.24;74.83;101711.90;1831371;78;21053;-63
2021/12/13 06:52:16;;;;;;;36.38;13.20;;;;;;;2.31;74.65;101713.28;1831408;78;21542;-62
2021/12/13 06:54:56;;;;;;;29.72;12.03;;;;;;;2.38;74.47;101718.13;1831384;78;21068;-63
2021/12/13 06:57:54;;;;;;;30.43;10.70;;;;;;;2.53;74.47;101717.41;1831473;78;21408;-64
2021/12/13 07:00:32;;;;;;;52.48;13.25;;;;;;;2.60;74.23;101716.61;1853888;77;21223;-64
2021/12/13 07:03:04;;;;;;;28.57;12.25;;;;;;;2.68;74.01;101726.64;1857877;77;21078;-64
2021/12/13 07:05:51;;;;;;;33.98;12.00;;;;;;;2.77;73.91;101723.70;1858776;77;21054;-63
2021/12/13 07:08:23;;;;;;;41.75;12.05;;;;;;;2.95;73.79;101712.55;1858825;77;21527;-63
2021/12/13 07:11:00;;;;;;;30.00;10.80;;;;;;;3.21;73.54;101720.55;1858768;77;21102;-63
2021/12/13 07:13:35;;;;;;;24.45;10.95;;;;;;;3.38;73.36;101712.44;1858768;77;21226;-63
2021/12/13 07:16:13;;;;;;;31.37;11.75;;;;;;;3.50;72.89;101714.67;1858803;77;21499;-63
2021/12/13 07:18:48;;;;;;;34.03;12.35;;;;;;;3.65;72.62;101713.03;1858841;77;21054;-63
2021/12/13 07:21:22;;;;;;;36.60;12.68;;;;;;;3.81;72.35;101713.95;1858935;77;21118;-63
2021/12/13 07:24:10;;;;;;;40.78;15.90;;;;;;;3.83;72.17;101710.92;1858762;77;21089;-63
2021/12/13 07:26:41;;;;;;;30.65;13.80;;;;;;;3.88;72.33;101700.98;1858862;77;21128;-63
2021/12/13 07:29:16;;;;;;;37.28;13.88;;;;;;;3.78;72.65;101707.86;1858909;77;21143;-63
2021/12/13 07:31:47;;;;;;;52.67;15.50;;;;;;;3.78;72.64;101710.47;1858701;77;21085;-63
2021/12/13 07:34:21;;;;;;;33.55;13.20;;;;;;;3.75;72.69;101705.27;1858895;77;21160;-63
2021/12/13 07:36:53;;;;;;;;;;;;;;;3.71;72.57;101712.19;1861726;77;21053;-64
2021/12/13 07:39:24;;;;;;;46.42;12.60;;;;;;;3.68;72.48;101710.42;1858413;77;20106;-63
2021/12/13 07:41:56;;;;;;;39.80;13.50;;;;;;;3.63;72.33;101707.36;1858972;77;21160;-63
2021/12/13 07:44:33;;;;;;;33.60;13.83;;;;;;;3.63;72.32;101703.45;1859086;77;21029;-64
2021/12/13 07:47:14;;;;;;;35.73;12.58;;;;;;;3.63;72.34;101699.55;1858958;77;21191;-64
2021/12/13 07:49:46;;;;;;;48.13;16.85;;;;;;;3.58;72.36;101703.85;1853098;77;21090;-64
2021/12/13 07:52:30;;;;;;;46.80;16.07;;;;;;;3.58;72.39;101693.44;1859038;77;21100;-64
2021/12/13 07:55:04;;;;;;;49.70;16.80;;;;;;;3.53;72.77;101695.17;1859006;77;21046;-64
2021/12/13 07:57:34;;;;;;;56.75;15.70;;;;;;;3.58;73.07;101697.34;1856962;77;21133;-65
2021/12/13 08:00:15;;;;;;;49.83;17.23;;;;;;;3.72;72.91;101689.17;1858853;77;21128;-64
2021/12/13 08:02:47;;;;;;;37.58;12.75;;;;;;;3.84;72.73;101681.41;1859040;77;21053;-64
2021/12/13 08:05:21;;;;;;;35.33;14.18;;;;;;;3.88;72.55;101675.79;1857345;77;21101;-65
2021/12/13 08:07:54;;;;;;;51.10;17.15;;;;;;;3.82;72.45;101677.94;1858994;77;21143;-64
2021/12/13 08:10:25;;;;;;;44.45;15.75;;;;;;;3.81;72.59;101672.72;1858898;77;21093;-64
2021/12/13 08:13:01;;;;;;;40.50;11.97;;;;;;;3.83;72.65;101678.80;1853673;77;21159;-65
2021/12/13 08:15:36;;;;;;;34.58;11.60;;;;;;;3.87;72.57;101679.24;1858929;77;21123;-64
2021/12/13 08:18:07;;;;;;;43.20;14.10;;;;;;;3.85;72.39;101672.75;1858997;77;21196;-64
2021/12/13 08:20:45;;;;;;;41.35;15.20;;;;;;;3.86;72.39;101660.14;1857854;77;21503;-65
2021/12/13 08:23:20;;;;;;;38.23;13.78;;;;;;;3.95;72.34;101659.31;1858896;77;21425;-65
2021/12/13 08:25:52;;;;;;;41.00;15.05;;;;;;;4.02;72.23;101660.18;1859041;77;21030;-64
2021/12/13 08:28:24;;;;;;;62.93;19.80;;;;;;;4.01;72.19;101660.63;1858824;77;21097;-64
2021/12/13 08:30:58;;;;;;;59.75;18.12;;;;;;;4.06;72.16;101659.34;1857769;77;21113;-64
2021/12/13 08:33:35;;;;;;;43.38;14.68;;;;;;;4.13;72.12;101654.59;1858900;77;21054;-64
2021/12/13 08:36:16;;;;;;;36.10;13.98;;;;;;;4.55;71.91;101649.41;1854054;77;21488;-64
2021/12/13 08:39:12;;;;;;;52.25;20.00;;;;;;;5.47;70.24;101640.58;1858757;77;21488;-64
2021/12/13 08:41:44;;;;;;;38.67;16.77;;;;;;;6.04;68.67;101639.91;1859026;77;21082;-64
2021/12/13 08:44:15;;;;;;;43.75;17.48;;;;;;;6.26;68.14;101639.78;1858117;77;21117;-65
2021/12/13 08:46:55;;;;;;;44.42;16.05;;;;;;;7.05;66.05;101622.53;1858923;77;21473;-64
2021/12/13 08:49:43;;;;;;;47.17;15.08;;;;;;;7.08;66.00;101639.53;1858809;77;21554;-64
2021/12/13 08:52:20;;;;;;;31.85;13.18;;;;;;;6.67;66.21;101632.05;1858882;77;21224;-64
2021/12/13 08:54:58;;;;;;;42.78;17.45;;;;;;;6.54;66.46;101636.52;1858813;77;21145;-64
2021/12/13 08:57:32;;;;;;;34.25;11.45;;;;;;;7.02;66.14;101625.63;1858771;77;21081;-65
2021/12/13 09:00:03;;;;;;;33.35;12.50;;;;;;;8.96;62.28;101617.21;1858715;77;21610;-64
2021/12/13 09:02:37;;;;;;;37.38;14.13;;;;;;;10.41;59.07;101608.46;1858798;77;21153;-64
2021/12/13 09:05:14;;;;;;;26.85;11.70;;;;;;;11.09;57.88;101611.99;1859042;77;21085;-64
2021/12/13 09:07:55;;;;;;;27.42;9.43;;;;;;;11.87;56.37;101600.09;1858451;77;21116;-66
2021/12/13 09:10:38;;;;;;;17.90;7.95;;;;;;;12.67;54.18;101606.78;1840474;77;21057;-70
2021/12/13 09:13:08;;;;;;;13.90;6.72;;;;;;;13.16;52.58;101593.64;1829154;77;21081;-61
2021/12/13 09:15:37;;;;;;;17.05;8.45;;;;;;;13.41;49.83;101593.17;1827960;78;21172;-61
2021/12/13 09:18:09;;;;;;;15.88;8.70;;;;;;;13.47;49.04;101594.26;1827869;78;21151;-62
2021/12/13 09:20:44;;;;;;;28.38;12.35;;;;;;;13.62;49.33;101595.92;1828466;78;21034;-62
2021/12/13 09:23:21;;;;;;;20.15;9.68;;;;;;;13.90;48.49;101591.27;1816165;78;21042;-62
2021/12/13 09:25:53;;;;;;;33.10;14.10;;;;;;;14.16;48.20;101589.37;1825143;77;21448;-59
2021/12/13 09:28:37;;;;;;;38.40;15.93;;;;;;;14.10;47.78;101587.83;1840127;77;21847;-60
2021/12/13 09:31:11;;;;;;;42.17;20.97;;;;;;;14.16;47.28;101584.08;1814574;77;21472;-62
2021/12/13 09:33:45;;;;;;;31.55;14.45;;;;;;;14.42;47.13;101582.14;1828313;77;21550;-65
2021/12/13 09:36:22;;;;;;;39.48;16.82;;;;;;;14.49;46.88;101573.02;1813411;76;21168;-65
2021/12/13 09:39:04;;;;;;;25.70;12.37;;;;;;;14.78;46.93;101563.00;1800015;80;21519;-65
2021/12/13 09:41:59;;;;;;;29.55;13.80;;;;;;;15.30;46.40;101554.02;1799946;78;21878;-67
2021/12/13 09:44:48;;;;;;;24.80;11.93;;;;;;;15.67;46.18;101561.59;1800027;80;21152;-64
2021/12/13 09:47:19;;;;;;;24.70;10.78;;;;;;;16.13;45.66;101554.09;1803842;78;21155;-68
2021/12/13 09:50:00;;;;;;;16.10;9.23;;;;;;;16.60;45.37;101558.83;1831974;77;21168;-61
2021/12/13 09:52:42;;;;;;;17.75;8.75;;;;;;;16.86;45.33;101549.14;1860954;77;21151;-67
2021/12/13 09:55:20;;;;;;;16.85;8.23;;;;;;;17.27;44.87;101551.39;1847371;77;21041;-62
2021/12/13 09:58:02;;;;;;;14.33;8.60;;;;;;;17.58;44.50;101551.89;1813356;77;21033;-63
2021/12/13 10:00:40;;;;;;;14.05;7.28;;;;;;;18.04;43.93;101532.48;1831342;77;21070;-63
2021/12/13 10:03:06;;;;;;;9.40;5.55;;;;;;;18.27;43.50;101523.12;1846376;77;21542;-63
2021/12/13 10:05:38;;;;;;;9.68;5.50;;;;;;;18.19;43.17;101520.92;1836979;78;21549;-62
2021/12/13 10:08:09;;;;;;;8.03;4.85;;;;;;;18.19;43.04;101520.92;1844864;77;21026;-62
2021/12/13 10:10:53;;;;;;;10.65;6.35;;;;;;;18.08;42.79;101510.03;1850377;77;21579;-65
2021/12/13 10:13:24;;;;;;;8.93;4.33;;;;;;;17.82;42.71;101488.88;1850583;77;21042;-65
2021/12/13 10:15:56;;;;;;;9.70;5.45;;;;;;;17.78;42.69;101497.95;1850522;77;21536;-65
2021/12/13 10:18:28;;;;;;;9.03;5.22;;;;;;;18.00;42.68;101488.28;1850528;77;21132;-66
2021/12/13 10:21:05;;;;;;;10.80;5.25;;;;;;;17.91;42.03;101484.37;1850391;77;21034;-67
2021/12/13 10:23:36;;;;;;;9.30;4.37;;;;;;;18.00;42.14;101481.17;1850527;77;21089;-67
2021/12/13 10:26:08;;;;;;;10.78;5.72;;;;;;;18.05;41.73;101483.07;1851321;76;21075;-68
2021/12/13 10:28:40;;;;;;;10.32;4.72;;;;;;;17.89;41.61;101483.12;1850639;77;21049;-61
2021/12/13 10:31:17;;;;;;;14.20;6.47;;;;;;;17.64;42.07;101482.30;1850405;77;21077;-62
2021/12/13 10:33:46;;;;;;;8.98;4.60;;;;;;;16.87;43.10;101475.89;1850008;77;21057;-64
2021/12/13 10:36:16;;;;;;;19.20;9.90;;;;;;;16.46;43.57;101477.59;1850563;77;21115;-61
2021/12/13 10:38:48;;;;;;;17.52;5.65;;;;;;;16.82;42.95;101485.91;1850615;77;21029;-64
2021/12/13 10:41:25;;;;;;;10.50;6.10;;;;;;;17.10;42.24;101483.97;1850614;77;21120;-64
2021/12/13 10:43:59;;;;;;;10.65;5.60;;;;;;;17.48;41.75;101482.30;1850028;77;21188;-63
2021/12/13 10:46:31;;;;;;;10.10;5.90;;;;;;;17.71;41.65;101482.34;1850533;77;21570;-61
2021/12/13 10:49:06;;;;;;;13.85;6.47;;;;;;;17.80;41.37;101481.41;1850353;77;21171;-64
2021/12/13 10:51:38;;;;;;;11.70;6.25;;;;;;;18.10;41.18;101491.66;1850617;77;21070;-64
2021/12/13 10:54:10;;;;;;;13.25;6.90;;;;;;;18.59;40.95;101492.34;1850453;77;21077;-65
2021/12/13 10:56:42;;;;;;;10.48;7.03;;;;;;;18.73;40.89;101500.84;1849784;77;21066;-64
2021/12/13 10:59:13;;;;;;;13.03;6.97;;;;;;;18.87;40.77;101501.73;1850244;77;21063;-60
2021/12/13 11:01:45;;;;;;;11.65;6.30;;;;;;;18.90;40.74;101499.34;1853861;77;21163;-61
2021/12/13 11:04:17;;;;;;;13.93;6.60;;;;;;;18.89;40.82;101483.82;1860361;77;21085;-61
2021/12/13 11:06:47;;;;;;;11.95;6.87;;;;;;;18.51;40.70;101478.98;1860430;77;21178;-63
2021/12/13 11:09:19;;;;;;;11.22;6.95;;;;;;;18.09;41.06;101481.97;1860600;77;21050;-63
2021/12/13 11:12:01;;;;;;;8.80;5.35;;;;;;;17.80;41.91;101476.08;1860960;77;21070;-63
2021/12/13 11:14:52;;;;;;;14.10;6.58;;;;;;;17.23;42.78;101465.53;1900504;75;21187;-64
2021/12/13 11:17:24;;;;;;;8.65;5.15;;;;;;;17.02;42.98;101450.26;1900290;75;21123;-64
2021/12/13 11:19:56;;;;;;;12.28;6.15;;;;;;;16.09;44.59;101451.58;1900425;75;21112;-64
2021/12/13 11:22:27;;;;;;;13.28;6.12;;;;;;;14.95;46.66;101456.18;1900377;75;21152;-61
2021/12/13 11:24:59;;;;;;;12.35;5.78;;;;;;;13.60;49.18;101453.56;1900354;75;21139;-62
2021/12/13 11:27:31;;;;;;;12.03;6.40;;;;;;;12.50;51.52;101445.75;1900356;75;21030;-64
2021/12/13 11:30:02;;;;;;;12.33;6.12;;;;;;;11.70;53.44;101447.13;1900485;75;21069;-61
2021/12/13 11:32:40;;;;;;;11.73;5.83;;;;;;;11.15;54.85;101449.71;1900434;75;21065;-63
2021/12/13 11:35:12;;;;;;;16.20;5.30;;;;;;;10.81;55.71;101459.08;1900492;75;21131;-64
2021/12/13 11:38:00;;;;;;;11.93;5.20;;;;;;;10.57;56.34;101463.27;1872803;75;21495;-62
2021/12/13 11:40:37;;;;;;;13.25;6.28;;;;;;;10.40;57.07;101458.00;1900353;75;21034;-64
2021/12/13 11:43:33;;;;;;;15.85;7.22;;;;;;;10.29;57.69;101454.77;1899904;75;21135;-64
2021/12/13 11:46:41;;;;;;;14.68;6.30;;;;;;;10.21;58.22;101465.92;1898541;75;21584;-63
2021/12/13 11:49:38;;;;;;;15.08;6.40;;;;;;;10.16;58.42;101461.22;1898521;75;21116;-62
2021/12/13 11:52:45;;;;;;;17.30;6.92;;;;;;;10.18;58.61;101462.05;1897804;75;21073;-64
2021/12/13 11:55:23;;;;;;;17.52;7.75;;;;;;;10.22;58.69;101463.72;1898594;75;21030;-62
2021/12/13 11:58:14;;;;;;;18.30;9.33;;;;;;;10.25;58.84;101460.98;1866732;77;21508;-63
2021/12/13 12:01:08;;;;;;;21.23;10.00;;;;;;;10.29;58.90;101469.66;1866003;77;21139;-64
2021/12/13 12:04:13;;;;;;;34.50;15.28;;;;;;;10.39;58.82;101477.32;1866870;77;21037;-60
2021/12/13 12:07:15;;;;;;;43.87;17.65;;;;;;;11.04;57.87;101477.30;1866588;77;21057;-63
2021/12/13 12:10:09;;;;;;;50.88;21.65;;;;;;;11.30;57.24;101477.84;1866635;77;21103;-63
2021/12/13 12:12:51;;;;;;;;;;;;;;;11.24;57.44;101485.95;1869546;76;21522;-65